Time;durP1;ratioP1;P1;durP2;ratioP2;P2;SDS_P1;SDS_P2;PMS_P1;PMS_P2;Temp;Humidity;BMP_temperature;BMP_pressure;BME280_temperature;BME280_humidity;BME280_pressure;Samples;Min_cycle;Max_cycle;Signal;HPM_P1;HPM_P2
2023/03/03 00:01:51;;;;;;;8.73;5.55;;;;;;;5.01;73.90;95249.97;5065352;28;20031;-83
2023/03/03 00:04:16;;;;;;;8.82;5.30;;;;;;;4.38;74.84;95153.75;5065415;28;20039;-82
2023/03/03 00:06:44;;;;;;;11.02;6.13;;;;;;;5.22;74.13;95265.06;5065618;28;20033;-82
2023/03/03 00:09:09;;;;;;;9.02;5.68;;;;;;;5.49;73.62;95288.91;5065927;28;20498;-82
2023/03/03 00:11:35;;;;;;;10.20;5.82;;;;;;;5.53;73.07;95276.88;5065277;28;20135;-82
2023/03/03 00:14:00;;;;;;;9.15;5.57;;;;;;;4.94;72.89;95192.31;5066797;28;20119;-82
2023/03/03 00:16:37;;;;;;;9.10;6.13;;;;;;;5.28;73.30;95231.75;5066867;28;20154;-82
2023/03/03 00:19:11;;;;;;;9.65;5.53;;;;;;;5.40;73.76;95250.88;5065327;28;20028;-82
2023/03/03 00:21:43;;;;;;;13.80;6.45;;;;;;;5.66;73.18;95283.63;5066278;28;20033;-82
2023/03/03 00:24:44;;;;;;;8.80;6.30;;;;;;;5.74;72.52;95278.75;5064252;28;20029;-82
2023/03/03 00:27:28;;;;;;;9.57;6.18;;;;;;;5.46;73.27;95241.22;5045145;28;20735;-82
2023/03/03 00:29:59;;;;;;;11.98;6.80;;;;;;;5.42;73.90;95275.88;5064774;28;20676;-82
2023/03/03 00:32:49;;;;;;;10.23;7.15;;;;;;;5.57;72.71;95270.06;5065342;28;20033;-82
2023/03/03 00:35:37;;;;;;;11.27;7.85;;;;;;;5.63;73.15;95277.03;5066338;28;20032;-82
2023/03/03 00:38:16;;;;;;;8.77;6.22;;;;;;;5.55;73.09;95272.16;5084644;28;20032;-82
2023/03/03 00:40:42;;;;;;;8.63;6.25;;;;;;;4.93;73.26;95158.38;5064950;28;20064;-82
2023/03/03 00:43:21;;;;;;;11.68;6.90;;;;;;;5.26;73.19;95212.78;5065828;28;20060;-82
2023/03/03 00:45:55;;;;;;;10.32;7.18;;;;;;;5.51;72.71;95222.88;5064200;28;20040;-81
2023/03/03 00:48:27;;;;;;;14.45;7.32;;;;;;;5.73;72.76;95257.94;5064451;28;20028;-81
2023/03/03 00:50:55;;;;;;;10.15;6.72;;;;;;;5.51;73.09;95246.56;5064333;28;20481;-82
2023/03/03 00:53:23;;;;;;;11.60;6.50;;;;;;;5.18;73.28;95194.78;5065948;28;20041;-82
2023/03/03 00:55:50;;;;;;;9.93;6.70;;;;;;;5.26;72.95;95184.66;5064239;28;20040;-82
2023/03/03 00:58:17;;;;;;;10.93;6.43;;;;;;;5.36;73.07;95208.47;5064060;28;20029;-82
2023/03/03 01:00:43;;;;;;;14.73;7.30;;;;;;;5.02;72.87;95130.66;5064657;28;20155;-80
2023/03/03 01:03:21;;;;;;;10.07;6.63;;;;;;;5.29;73.03;95155.25;5067694;28;20131;-79
2023/03/03 01:05:46;;;;;;;10.95;6.75;;;;;;;5.45;72.64;95174.69;5053584;28;20178;-80
2023/03/03 01:08:15;;;;;;;10.63;7.00;;;;;;;4.80;73.59;95117.44;5054387;28;20075;-80
2023/03/03 01:10:47;;;;;;;11.77;7.45;;;;;;;5.04;73.91;95174.06;5054358;28;20418;-80
2023/03/03 01:13:12;;;;;;;10.73;6.75;;;;;;;4.89;73.46;95138.84;5054156;28;20021;-80
2023/03/03 01:15:39;;;;;;;12.07;6.78;;;;;;;5.47;73.74;95222.59;5053922;28;20156;-80
2023/03/03 01:18:06;;;;;;;11.57;7.43;;;;;;;5.22;74.16;95204.56;5053842;28;20025;-80
2023/03/03 01:20:31;;;;;;;11.13;7.00;;;;;;;5.07;73.40;95167.53;5054052;28;20380;-79
2023/03/03 01:22:57;;;;;;;10.32;6.38;;;;;;;4.62;73.09;95081.69;5054197;28;20036;-80
2023/03/03 01:25:22;;;;;;;13.48;7.72;;;;;;;4.93;73.69;95129.47;5052517;28;20461;-80
2023/03/03 01:27:48;;;;;;;11.05;6.80;;;;;;;5.03;73.05;95143.53;5052770;28;20040;-81
2023/03/03 01:30:14;;;;;;;12.15;7.45;;;;;;;5.11;73.43;95158.13;5073924;28;20067;-80
2023/03/03 01:32:39;;;;;;;12.13;7.55;;;;;;;5.56;73.76;95218.53;5052282;28;20123;-81
2023/03/03 01:35:05;;;;;;;10.50;6.85;;;;;;;4.92;74.19;95157.56;5052103;28;20558;-81
2023/03/03 01:37:30;;;;;;;13.30;7.63;;;;;;;5.34;73.35;95199.25;5052368;28;20051;-80
2023/03/03 01:39:56;;;;;;;11.38;7.28;;;;;;;4.81;73.89;95105.06;5051683;28;20040;-80
2023/03/03 01:42:22;;;;;;;11.82;6.47;;;;;;;5.28;73.38;95182.56;5051790;28;20033;-81
2023/03/03 01:44:48;;;;;;;8.13;6.10;;;;;;;5.49;73.48;95209.19;5053709;28;20033;-80
2023/03/03 01:47:21;;;;;;;9.75;6.82;;;;;;;5.20;73.26;95161.94;5053305;28;20630;-80
2023/03/03 01:50:03;;;;;;;10.68;7.00;;;;;;;5.29;73.91;95207.03;5053008;28;20041;-80
2023/03/03 01:52:31;;;;;;;;;;;;;;;5.36;74.26;95205.03;5052186;28;20071;-81
2023/03/03 01:55:01;;;;;;;11.38;6.72;;;;;;;5.14;73.89;95177.88;5051596;28;19967;-81
2023/03/03 01:57:34;;;;;;;9.43;5.70;;;;;;;4.99;73.57;95128.50;5053076;28;20186;-80
2023/03/03 02:00:02;;;;;;;8.93;5.75;;;;;;;5.40;73.27;95206.19;5051485;28;20040;-80
2023/03/03 02:02:29;;;;;;;8.73;5.40;;;;;;;5.22;73.30;95156.44;5054697;28;20060;-81
2023/03/03 02:04:54;;;;;;;9.23;6.07;;;;;;;5.03;73.02;95146.16;5071035;28;20036;-81
2023/03/03 02:07:22;;;;;;;9.43;5.43;;;;;;;5.39;73.71;95191.44;5051666;28;20364;-82
2023/03/03 02:10:18;;;;;;;8.75;5.75;;;;;;;5.50;72.74;95203.69;5052548;28;20036;-81
2023/03/03 02:12:55;;;;;;;9.57;5.68;;;;;;;5.37;72.88;95206.63;5024704;28;20041;-80
2023/03/03 02:15:28;;;;;;;9.77;5.63;;;;;;;5.27;72.66;95209.91;5051776;28;20151;-81
2023/03/03 02:17:56;;;;;;;8.35;5.53;;;;;;;5.30;73.59;95209.44;5052056;28;20036;-80
2023/03/03 02:20:43;;;;;;;8.35;5.43;;;;;;;5.38;73.33;95203.78;5051774;28;20029;-80
2023/03/03 02:23:28;;;;;;;7.00;4.88;;;;;;;4.80;73.35;95116.66;5051052;28;20443;-79
2023/03/03 02:25:57;;;;;;;7.97;5.40;;;;;;;5.54;72.52;95206.63;5051635;28;20506;-80
2023/03/03 02:28:25;;;;;;;7.68;5.18;;;;;;;5.52;72.45;95209.50;5051608;28;20486;-79
2023/03/03 02:30:54;;;;;;;8.32;5.22;;;;;;;5.58;72.36;95205.09;5051694;28;20515;-79
2023/03/03 02:33:20;;;;;;;8.32;5.72;;;;;;;5.19;72.11;95154.31;5051735;28;20534;-80
2023/03/03 02:35:47;;;;;;;8.32;5.55;;;;;;;5.33;72.05;95187.13;5051187;28;20087;-79
2023/03/03 02:38:31;;;;;;;8.15;5.35;;;;;;;5.46;72.22;95212.31;5050690;28;20044;-79
2023/03/03 02:41:24;;;;;;;8.13;5.95;;;;;;;5.35;73.34;95204.25;5051449;28;20131;-80
2023/03/03 02:43:57;;;;;;;9.13;5.82;;;;;;;5.23;73.40;95193.03;5052482;28;20029;-80
2023/03/03 02:46:22;;;;;;;9.52;6.43;;;;;;;4.70;73.41;95101.50;5051298;28;20031;-80
2023/03/03 02:48:47;;;;;;;9.68;6.20;;;;;;;5.14;73.19;95155.03;5051418;28;20037;-82
2023/03/03 02:51:13;;;;;;;9.02;6.82;;;;;;;5.28;72.35;95184.41;5052127;28;20029;-83
2023/03/03 02:53:39;;;;;;;9.90;6.47;;;;;;;4.83;72.74;95103.00;5050846;28;20440;-82
2023/03/03 02:56:06;;;;;;;9.15;6.03;;;;;;;5.25;74.14;95209.38;5066798;28;20024;-82
2023/03/03 02:58:31;;;;;;;10.23;6.65;;;;;;;5.45;73.26;95203.59;5052644;28;20518;-82
2023/03/03 03:00:57;;;;;;;11.85;7.28;;;;;;;5.50;72.53;95200.25;5050924;28;20057;-82
2023/03/03 03:03:22;;;;;;;8.75;6.47;;;;;;;4.88;72.36;95103.88;5052282;28;20033;-82
2023/03/03 03:05:48;;;;;;;10.02;6.53;;;;;;;5.50;73.10;95192.34;5051259;28;20028;-83
2023/03/03 03:08:14;;;;;;;9.93;6.88;;;;;;;4.76;72.11;95081.38;5052364;28;20057;-82
2023/03/03 03:10:39;;;;;;;11.40;8.25;;;;;;;5.16;72.87;95144.28;5051629;28;20033;-82
2023/03/03 03:13:05;;;;;;;10.18;6.95;;;;;;;4.94;72.76;95110.84;5050299;28;20033;-82
2023/03/03 03:15:30;;;;;;;12.15;7.43;;;;;;;5.47;72.63;95193.66;5052177;28;20029;-82
2023/03/03 03:17:56;;;;;;;10.75;7.20;;;;;;;5.16;73.08;95126.66;5050539;28;20043;-82
2023/03/03 03:20:21;;;;;;;12.55;7.15;;;;;;;4.92;73.32;95093.69;5050653;28;20032;-83
2023/03/03 03:22:47;;;;;;;12.00;7.35;;;;;;;4.57;72.94;95034.34;5050795;28;20033;-83
2023/03/03 03:25:12;;;;;;;13.18;8.15;;;;;;;4.99;73.58;95102.22;5052002;28;20036;-83
2023/03/03 03:27:37;;;;;;;13.23;8.07;;;;;;;4.85;73.28;95077.31;5050096;28;20467;-82
2023/03/03 03:30:03;;;;;;;13.15;8.48;;;;;;;5.35;73.40;95150.84;5051250;28;20375;-83
2023/03/03 03:32:29;;;;;;;13.13;8.60;;;;;;;5.05;74.08;95096.78;5050381;28;20041;-83
2023/03/03 03:34:54;;;;;;;13.10;8.38;;;;;;;4.76;73.83;95070.84;5051949;28;20025;-82
2023/03/03 03:37:19;;;;;;;12.98;8.55;;;;;;;5.51;74.85;95193.94;5051140;28;20033;-82
2023/03/03 03:39:45;;;;;;;13.98;9.43;;;;;;;4.80;75.04;95075.41;5050422;28;20033;-82
2023/03/03 03:42:10;;;;;;;15.27;8.82;;;;;;;4.51;74.59;95051.03;5052029;28;20037;-82
2023/03/03 03:44:36;;;;;;;12.27;8.57;;;;;;;5.02;75.38;95141.19;5050035;28;20123;-82
2023/03/03 03:47:01;;;;;;;15.80;9.07;;;;;;;4.90;76.11;95108.91;5052105;28;20071;-82
2023/03/03 03:49:27;;;;;;;17.75;10.05;;;;;;;5.29;76.34;95175.50;5050672;28;20036;-82
2023/03/03 03:51:52;;;;;;;16.55;10.02;;;;;;;5.32;76.72;95175.81;5049400;28;20040;-82
2023/03/03 03:54:17;;;;;;;15.88;10.02;;;;;;;5.39;76.14;95173.81;5051080;28;20060;-82
2023/03/03 03:56:43;;;;;;;14.77;9.48;;;;;;;5.26;76.03;95153.13;5051379;28;20092;-82
2023/03/03 03:59:08;;;;;;;22.55;10.98;;;;;;;4.88;76.79;95088.13;5049076;28;20033;-82
2023/03/03 04:01:34;;;;;;;19.38;11.13;;;;;;;4.94;76.99;95110.84;5049581;28;20094;-82
2023/03/03 04:03:59;;;;;;;24.48;11.85;;;;;;;5.13;77.13;95135.03;5048913;28;20032;-82
2023/03/03 04:06:24;;;;;;;18.67;11.60;;;;;;;4.71;76.98;95068.16;5049209;28;20025;-82
2023/03/03 04:08:50;;;;;;;19.15;11.40;;;;;;;4.59;77.09;95050.63;5049222;28;20029;-82
2023/03/03 04:11:15;;;;;;;15.00;10.18;;;;;;;4.70;77.51;95092.84;5050369;28;20033;-82
2023/03/03 04:13:41;;;;;;;15.82;9.95;;;;;;;4.77;78.67;95093.47;5050245;28;20037;-82
2023/03/03 04:16:07;;;;;;;19.33;12.13;;;;;;;4.69;78.14;95085.97;5048593;28;20037;-81
2023/03/03 04:18:34;;;;;;;20.98;11.98;;;;;;;4.82;77.97;95096.16;5049936;28;20513;-81
2023/03/03 04:20:59;;;;;;;19.48;11.27;;;;;;;4.75;78.24;95079.75;5050227;28;20037;-81
2023/03/03 04:23:24;;;;;;;20.08;12.23;;;;;;;4.73;78.08;95064.25;5050759;28;20028;-81
2023/03/03 04:25:50;;;;;;;22.65;12.13;;;;;;;4.95;78.16;95109.81;5050500;28;20086;-81
2023/03/03 04:28:16;;;;;;;20.23;12.55;;;;;;;5.08;78.31;95131.53;5048543;28;20043;-81
2023/03/03 04:30:41;;;;;;;21.75;12.50;;;;;;;4.83;78.66;95084.63;5050091;28;20547;-81
2023/03/03 04:33:07;;;;;;;23.17;12.65;;;;;;;4.95;79.00;95145.78;5049768;28;20124;-81
2023/03/03 04:35:33;;;;;;;22.75;11.18;;;;;;;5.14;79.30;95162.09;5048624;28;20505;-81
2023/03/03 04:37:59;;;;;;;22.83;13.38;;;;;;;4.69;79.11;95102.53;5061894;28;20044;-81
2023/03/03 04:40:24;;;;;;;25.08;12.25;;;;;;;4.87;79.00;95119.91;5059729;28;20100;-81
2023/03/03 04:42:49;;;;;;;20.25;12.13;;;;;;;4.79;79.86;95109.78;5054111;28;20063;-81
2023/03/03 04:45:15;;;;;;;19.80;12.52;;;;;;;4.94;80.08;95123.97;5052557;28;20119;-81
2023/03/03 04:47:41;;;;;;;24.17;13.18;;;;;;;4.96;79.49;95135.03;5053601;28;20025;-81
2023/03/03 04:50:08;;;;;;;22.80;12.82;;;;;;;4.53;79.51;95045.53;5052014;28;20029;-81
2023/03/03 04:52:33;;;;;;;23.83;13.40;;;;;;;4.33;79.07;95026.84;5053598;28;20567;-81
2023/03/03 04:54:59;;;;;;;26.98;14.38;;;;;;;5.14;79.09;95162.09;5051933;28;20071;-81
2023/03/03 04:57:24;;;;;;;29.77;14.13;;;;;;;4.48;79.84;95062.03;5052398;28;20517;-81
2023/03/03 04:59:50;;;;;;;32.65;15.95;;;;;;;4.61;80.03;95084.53;5054008;28;20555;-81
2023/03/03 05:02:16;;;;;;;30.88;14.65;;;;;;;4.44;80.48;95096.84;5053350;28;20032;-81
2023/03/03 05:04:41;;;;;;;25.45;13.73;;;;;;;4.28;80.49;95053.78;5052017;28;20048;-81
2023/03/03 05:07:07;;;;;;;25.50;13.90;;;;;;;4.97;80.22;95157.66;5053414;28;20033;-81
2023/03/03 05:09:33;;;;;;;24.52;13.93;;;;;;;5.18;80.44;95171.13;5052155;28;20029;-81
2023/03/03 05:11:58;;;;;;;25.48;14.75;;;;;;;4.78;80.82;95116.88;5052683;28;20051;-81
2023/03/03 05:14:24;;;;;;;30.30;15.77;;;;;;;4.51;80.14;95079.91;5051425;28;20124;-81
2023/03/03 05:16:49;;;;;;;26.15;14.63;;;;;;;4.78;79.71;95105.56;5052794;28;20036;-81
2023/03/03 05:19:14;;;;;;;27.67;14.93;;;;;;;4.98;79.32;95156.63;5051737;28;20120;-81
2023/03/03 05:21:41;;;;;;;31.55;16.77;;;;;;;4.58;79.77;95082.38;5051559;28;20033;-81
2023/03/03 05:24:07;;;;;;;31.10;16.40;;;;;;;4.90;80.09;95132.56;5051744;28;20511;-81
2023/03/03 05:26:33;;;;;;;28.58;15.82;;;;;;;5.04;80.78;95179.31;5053667;28;20033;-81
2023/03/03 05:28:58;;;;;;;31.90;16.70;;;;;;;4.47;80.34;95067.50;5053220;28;20527;-81
2023/03/03 05:31:26;;;;;;;28.75;16.30;;;;;;;4.70;80.55;95104.13;5052449;28;20111;-81
2023/03/03 05:33:51;;;;;;;27.42;16.60;;;;;;;4.66;79.97;95084.63;5053084;28;20033;-81
2023/03/03 05:36:17;;;;;;;30.17;16.27;;;;;;;4.59;80.19;95073.47;5031956;28;20033;-81
2023/03/03 05:38:42;;;;;;;31.60;16.23;;;;;;;4.59;80.54;95105.78;5038146;28;20033;-81
2023/03/03 05:41:08;;;;;;;32.72;16.33;;;;;;;4.96;80.84;95150.00;5053408;28;20025;-81
2023/03/03 05:43:34;;;;;;;30.00;15.50;;;;;;;5.15;81.12;95163.69;5052856;28;20112;-81
2023/03/03 05:45:59;;;;;;;34.17;15.90;;;;;;;4.90;80.93;95143.88;5031285;28;20029;-81
2023/03/03 05:48:25;;;;;;;29.35;14.75;;;;;;;5.27;80.48;95186.25;5051204;28;20575;-81
2023/03/03 05:50:51;;;;;;;26.95;16.65;;;;;;;4.88;80.63;95116.25;5034546;28;20475;-82
2023/03/03 05:53:16;;;;;;;29.63;16.58;;;;;;;5.30;80.86;95190.22;5052064;28;20148;-81
2023/03/03 05:55:42;;;;;;;33.97;17.80;;;;;;;5.37;80.61;95188.22;5050853;28;20036;-81
2023/03/03 05:58:07;;;;;;;27.38;15.20;;;;;;;5.10;80.42;95148.66;5051119;28;20132;-81
2023/03/03 06:00:33;;;;;;;26.75;15.00;;;;;;;4.65;81.14;95077.78;5057337;28;20035;-81
2023/03/03 06:02:58;;;;;;;27.33;14.55;;;;;;;4.41;80.33;95021.19;5064836;28;20394;-81
2023/03/03 06:05:24;;;;;;;31.67;15.38;;;;;;;5.51;81.17;95186.88;5054277;28;20036;-81
2023/03/03 06:07:50;;;;;;;26.83;14.02;;;;;;;4.95;80.93;95107.19;5067846;28;20029;-82
2023/03/03 06:10:15;;;;;;;23.67;13.18;;;;;;;5.34;80.48;95165.84;5050952;28;20391;-81
2023/03/03 06:12:41;;;;;;;26.30;13.52;;;;;;;5.00;80.54;95091.47;5050674;28;20593;-81
2023/03/03 06:15:07;;;;;;;23.92;13.93;;;;;;;5.38;80.75;95134.59;5052301;28;20029;-81
2023/03/03 06:17:33;;;;;;;23.27;13.88;;;;;;;5.29;80.04;95128.94;5050746;28;20029;-81
2023/03/03 06:19:58;;;;;;;23.30;12.85;;;;;;;4.93;79.99;95119.75;5050797;28;20104;-81
2023/03/03 06:22:23;;;;;;;23.83;13.07;;;;;;;5.36;81.10;95162.97;5051827;28;20102;-81
2023/03/03 06:24:51;;;;;;;25.42;13.38;;;;;;;5.20;80.65;95134.84;5051904;28;20029;-81
2023/03/03 06:27:17;;;;;;;22.70;13.13;;;;;;;4.96;81.08;95111.38;5051720;28;20024;-81
2023/03/03 06:29:42;;;;;;;23.50;13.23;;;;;;;5.44;80.47;95175.72;5052130;28;20111;-81
2023/03/03 06:32:07;;;;;;;22.08;13.38;;;;;;;4.95;80.25;95098.50;5050612;28;20036;-82
2023/03/03 06:34:33;;;;;;;27.35;15.05;;;;;;;5.42;80.06;95168.06;5050793;28;20167;-81
2023/03/03 06:36:58;;;;;;;28.88;14.88;;;;;;;5.46;79.55;95159.69;5051752;28;20032;-82
2023/03/03 06:39:24;;;;;;;28.42;14.63;;;;;;;5.61;79.51;95202.00;5052401;28;20071;-82
2023/03/03 06:41:49;;;;;;;69.93;28.13;;;;;;;5.39;80.27;95154.59;5050854;28;20441;-82
2023/03/03 06:44:15;;;;;;;32.08;16.13;;;;;;;5.36;80.10;95149.81;5052609;28;20106;-80
2023/03/03 06:46:40;;;;;;;26.15;14.00;;;;;;;5.49;80.32;95167.91;5052020;28;20033;-80
2023/03/03 06:49:06;;;;;;;27.83;15.10;;;;;;;5.40;79.65;95143.84;5052292;28;20495;-81
2023/03/03 06:51:38;;;;;;;27.67;15.27;;;;;;;5.79;80.27;95201.75;5051043;28;20028;-81
2023/03/03 06:54:25;;;;;;;29.48;13.65;;;;;;;5.63;80.17;95169.16;5054030;28;20048;-80
2023/03/03 06:56:55;;;;;;;23.45;12.93;;;;;;;5.72;79.10;95209.00;5050729;28;20040;-80
2023/03/03 06:59:21;;;;;;;23.10;14.02;;;;;;;5.17;80.04;95114.31;5052244;28;20120;-80
2023/03/03 07:01:48;;;;;;;25.60;14.25;;;;;;;5.74;80.49;95210.34;5050049;28;20068;-81
2023/03/03 07:04:32;;;;;;;27.85;15.02;;;;;;;5.79;80.26;95207.00;5051564;28;20111;-81
2023/03/03 07:07:07;;;;;;;28.23;14.95;;;;;;;5.49;79.61;95160.03;5051700;28;20037;-81
2023/03/03 07:09:32;;;;;;;25.75;14.00;;;;;;;5.52;79.77;95172.69;5051398;28;20063;-81
2023/03/03 07:12:09;;;;;;;24.58;13.50;;;;;;;5.80;80.14;95214.63;5050046;28;20037;-81
2023/03/03 07:14:41;;;;;;;28.08;14.60;;;;;;;5.55;81.40;95197.72;5050125;28;20033;-81
2023/03/03 07:17:15;;;;;;;24.02;14.18;;;;;;;5.70;81.80;95206.63;5051236;28;20531;-81
2023/03/03 07:19:41;;;;;;;23.08;12.55;;;;;;;5.67;81.42;95188.66;5051896;28;20035;-81
2023/03/03 07:22:13;;;;;;;21.38;12.38;;;;;;;5.81;80.66;95204.91;5064898;28;20465;-81
2023/03/03 07:24:38;;;;;;;24.60;13.88;;;;;;;5.75;80.99;95188.25;5056089;28;20067;-81
2023/03/03 07:27:17;;;;;;;22.23;13.23;;;;;;;6.01;80.72;95215.75;5049318;28;20066;-81
2023/03/03 07:29:42;;;;;;;27.98;13.93;;;;;;;5.69;81.17;95156.88;5049716;28;20041;-81
2023/03/03 07:32:34;;;;;;;24.58;13.40;;;;;;;5.61;79.93;95133.59;5051257;28;20400;-81
2023/03/03 07:35:01;;;;;;;23.23;13.23;;;;;;;5.52;80.72;95135.06;5050857;28;20037;-82
2023/03/03 07:37:34;;;;;;;27.40;14.38;;;;;;;6.07;81.36;95198.97;5051072;28;20107;-81
2023/03/03 07:40:01;;;;;;;24.30;14.18;;;;;;;5.44;80.50;95092.34;5050865;28;20029;-81
2023/03/03 07:42:38;;;;;;;24.83;14.75;;;;;;;6.08;79.84;95200.56;5050859;28;20095;-81
2023/03/03 07:45:22;;;;;;;25.20;14.48;;;;;;;5.36;80.43;95113.81;5050475;28;20047;-82
2023/03/03 07:47:47;;;;;;;24.38;13.68;;;;;;;5.57;80.70;95149.06;5049034;28;20182;-81
2023/03/03 07:50:18;;;;;;;23.98;13.88;;;;;;;5.35;81.26;95091.16;5050112;28;20069;-81
2023/03/03 07:52:55;;;;;;;23.63;13.75;;;;;;;5.69;80.47;95139.25;5048989;28;20055;-81
2023/03/03 07:55:30;;;;;;;21.50;13.02;;;;;;;6.18;79.47;95202.50;5048702;28;20044;-81
2023/03/03 07:58:04;;;;;;;20.52;12.25;;;;;;;6.19;79.03;95193.56;5050768;28;20136;-81
2023/03/03 08:00:29;;;;;;;22.95;14.07;;;;;;;6.08;78.52;95195.31;5050218;28;20036;-81
2023/03/03 08:03:11;;;;;;;24.77;12.93;;;;;;;5.91;78.10;95172.69;5048643;28;20036;-81
2023/03/03 08:05:46;;;;;;;24.02;14.63;;;;;;;6.09;79.04;95196.09;5049328;28;20518;-81
2023/03/03 08:08:21;;;;;;;25.85;14.23;;;;;;;5.91;80.63;95175.34;5030571;28;20049;-81
2023/03/03 08:10:49;;;;;;;24.17;13.88;;;;;;;5.64;79.91;95104.19;5038839;28;20055;-81
2023/03/03 08:13:21;;;;;;;21.85;14.32;;;;;;;6.13;79.04;95197.19;5049758;28;20036;-81
2023/03/03 08:15:51;;;;;;;24.60;15.20;;;;;;;6.14;80.20;95188.25;5053354;28;20482;-81
2023/03/03 08:18:35;;;;;;;28.50;15.90;;;;;;;6.26;80.03;95194.19;5035991;28;20040;-83
2023/03/03 08:21:21;;;;;;;25.67;14.70;;;;;;;5.95;79.46;95156.16;5054241;28;20642;-81
2023/03/03 08:23:50;;;;;;;28.00;15.90;;;;;;;5.81;80.49;95123.31;5054246;28;20083;-81
2023/03/03 08:26:17;;;;;;;29.58;15.95;;;;;;;5.50;80.23;95063.47;5054139;28;20037;-81
2023/03/03 08:28:43;;;;;;;28.48;16.13;;;;;;;5.48;79.48;95076.88;5053885;28;20124;-81
2023/03/03 08:31:08;;;;;;;26.90;14.68;;;;;;;5.38;79.04;95067.03;5052449;28;20128;-81
2023/03/03 08:33:34;;;;;;;24.77;14.48;;;;;;;5.66;79.38;95110.78;5054163;28;20040;-81
2023/03/03 08:35:59;;;;;;;31.33;16.08;;;;;;;5.78;78.72;95105.41;5052900;28;20048;-81
2023/03/03 08:38:25;;;;;;;23.00;13.27;;;;;;;5.41;78.14;95052.59;5053811;28;20047;-81
2023/03/03 08:40:50;;;;;;;26.85;14.88;;;;;;;5.60;78.90;95087.28;5053765;28;20110;-81
2023/03/03 08:43:20;;;;;;;30.35;15.18;;;;;;;5.98;79.80;95147.78;5052344;28;20029;-81
2023/03/03 08:45:47;;;;;;;29.63;15.98;;;;;;;5.85;79.16;95116.53;5053832;28;20037;-81
2023/03/03 08:48:12;;;;;;;38.63;19.00;;;;;;;6.06;79.11;95165.00;5054270;28;20044;-81
2023/03/03 08:50:38;;;;;;;32.83;17.77;;;;;;;5.92;79.88;95132.19;5053413;28;20124;-81
2023/03/03 08:53:05;;;;;;;24.40;14.38;;;;;;;5.96;78.83;95165.66;5053082;28;20049;-81
2023/03/03 08:55:31;;;;;;;27.50;15.95;;;;;;;6.20;79.37;95184.63;5053519;28;20039;-81
2023/03/03 08:57:56;;;;;;;30.80;15.93;;;;;;;5.73;80.66;95126.38;5052319;28;20032;-81
2023/03/03 09:00:22;;;;;;;26.58;14.00;;;;;;;6.28;80.37;95186.03;5053671;28;20120;-81
2023/03/03 09:02:49;;;;;;;20.50;12.95;;;;;;;6.42;79.29;95190.69;5053559;28;20040;-81
2023/03/03 09:05:16;;;;;;;22.58;12.65;;;;;;;6.43;79.33;95194.13;5053312;28;20447;-81
2023/03/03 09:07:42;;;;;;;29.70;13.93;;;;;;;5.92;78.91;95105.84;5052173;28;20073;-81
2023/03/03 09:10:09;;;;;;;29.05;14.15;;;;;;;6.38;79.25;95165.09;5053211;28;20032;-81
2023/03/03 09:12:39;;;;;;;26.98;12.15;;;;;;;6.56;79.31;95180.59;5031629;28;20041;-81
2023/03/03 09:15:25;;;;;;;20.85;10.55;;;;;;;6.51;77.55;95172.59;5047858;28;20029;-81
2023/03/03 09:17:52;;;;;;;24.85;11.02;;;;;;;5.77;79.08;95061.72;5051998;28;20120;-81
2023/03/03 09:20:39;;;;;;;23.60;12.45;;;;;;;6.62;78.78;95160.34;5052206;28;20033;-81
2023/03/03 09:23:31;;;;;;;16.45;10.77;;;;;;;6.22;77.61;95090.41;5053288;28;20035;-81
2023/03/03 09:26:10;;;;;;;14.93;8.70;;;;;;;6.62;77.44;95155.88;5055934;28;20028;-81
2023/03/03 09:28:38;;;;;;;20.63;11.23;;;;;;;6.37;78.16;95108.19;5067407;28;20051;-81
2023/03/03 09:31:16;;;;;;;22.83;12.02;;;;;;;6.93;77.83;95186.75;5052877;28;20048;-81
2023/03/03 09:33:48;;;;;;;19.50;11.05;;;;;;;6.94;76.51;95177.00;5052705;28;20416;-81
2023/03/03 09:36:35;;;;;;;21.02;11.45;;;;;;;6.31;76.83;95072.31;5053212;28;20036;-81
2023/03/03 09:39:24;;;;;;;17.25;10.20;;;;;;;6.78;76.10;95144.44;5053107;28;20041;-81
2023/03/03 09:41:49;;;;;;;23.75;11.85;;;;;;;7.04;75.51;95177.06;5051804;28;20091;-81
2023/03/03 09:44:40;;;;;;;19.50;10.88;;;;;;;7.06;75.58;95180.25;5051088;28;20064;-81
2023/03/03 09:47:16;;;;;;;20.52;10.45;;;;;;;6.77;75.90;95121.75;5051127;28;20040;-81
2023/03/03 09:50:00;;;;;;;21.70;12.50;;;;;;;7.17;77.09;95179.28;5050973;28;20079;-82
2023/03/03 09:52:34;;;;;;;25.20;11.52;;;;;;;7.08;77.02;95180.00;5052966;28;20041;-81
2023/03/03 09:55:21;;;;;;;22.85;12.48;;;;;;;7.18;76.55;95178.22;5052818;28;20090;-82
2023/03/03 09:58:36;;;;;;;20.83;12.13;;;;;;;6.71;76.39;95079.78;5051611;28;20044;-81
2023/03/03 10:01:15;;;;;;;19.15;11.20;;;;;;;7.37;75.82;95173.38;5010542;28;20500;-82
2023/03/03 10:03:59;;;;;;;22.05;12.48;;;;;;;7.50;75.97;95174.78;5070311;28;20542;-82
2023/03/03 10:06:47;;;;;;;23.02;12.13;;;;;;;7.39;74.92;95173.13;5050860;28;20067;-81
2023/03/03 10:09:31;;;;;;;21.35;11.57;;;;;;;7.57;75.80;95162.94;5045043;28;20049;-82
2023/03/03 10:12:15;;;;;;;21.85;13.00;;;;;;;7.70;75.48;95164.38;5052041;28;20059;-82
2023/03/03 10:15:02;;;;;;;18.02;10.90;;;;;;;7.45;75.02;95138.59;5052520;28;20029;-82
2023/03/03 10:17:39;;;;;;;22.75;13.63;;;;;;;7.68;75.34;95159.34;5034387;28;20479;-81
2023/03/03 10:20:10;;;;;;;21.40;12.15;;;;;;;7.62;74.86;95160.38;5052407;28;20044;-82
2023/03/03 10:22:59;;;;;;;20.35;10.90;;;;;;;7.22;74.48;95115.22;5050630;28;20064;-82
2023/03/03 10:25:50;;;;;;;16.83;10.65;;;;;;;6.82;74.42;95057.72;5051588;28;20071;-82
2023/03/03 10:28:24;;;;;;;18.63;10.32;;;;;;;7.55;73.59;95148.44;5050289;28;20120;-81
2023/03/03 10:31:18;;;;;;;21.08;11.50;;;;;;;7.61;73.06;95153.50;5050131;28;20068;-81
2023/03/03 10:34:02;;;;;;;19.88;11.68;;;;;;;7.64;72.32;95146.88;5050096;28;20491;-82
2023/03/03 10:36:48;;;;;;;18.38;10.65;;;;;;;7.54;72.70;95149.47;5050097;28;20045;-81
2023/03/03 10:39:33;;;;;;;20.23;11.60;;;;;;;7.54;72.75;95146.84;5050030;28;20048;-81
2023/03/03 10:42:29;;;;;;;22.38;12.20;;;;;;;7.58;72.73;95151.34;5051886;28;20060;-82
2023/03/03 10:45:11;;;;;;;22.73;12.20;;;;;;;7.24;72.79;95084.94;5052312;28;20060;-81
2023/03/03 10:47:50;;;;;;;22.75;13.02;;;;;;;7.23;74.94;95127.38;5051924;28;20479;-81
2023/03/03 10:50:24;;;;;;;19.55;12.13;;;;;;;7.47;74.61;95139.16;5050161;28;20040;-81
2023/03/03 10:52:52;;;;;;;20.40;12.43;;;;;;;7.04;75.49;95144.63;5051090;28;20076;-82
2023/03/03 10:55:25;;;;;;;19.35;11.27;;;;;;;7.21;74.98;95142.66;5051579;28;20045;-82
2023/03/03 10:57:53;;;;;;;;;;;;;;;6.99;73.62;95137.47;5050924;28;20041;-82
2023/03/03 11:01:13;;;;;;;21.20;12.43;;;;;;;6.55;74.22;95134.19;5050062;28;19921;-82
2023/03/03 11:03:56;;;;;;;16.67;11.18;;;;;;;5.96;75.06;95060.38;5012646;28;20191;-82
2023/03/03 11:06:37;;;;;;;22.42;11.82;;;;;;;6.57;76.16;95134.72;5047184;28;20039;-82
2023/03/03 11:09:09;;;;;;;21.58;11.95;;;;;;;5.96;74.63;95033.25;5051818;28;20060;-82
2023/03/03 11:11:35;;;;;;;19.48;11.80;;;;;;;6.39;76.00;95127.19;5051583;28;20032;-82
2023/03/03 11:14:12;;;;;;;27.55;14.23;;;;;;;6.55;76.91;95124.47;5051065;28;20063;-82
2023/03/03 11:16:41;;;;;;;25.33;14.32;;;;;;;6.35;76.31;95123.44;5049474;28;20043;-81
2023/03/03 11:19:43;;;;;;;24.60;14.20;;;;;;;5.81;76.41;95037.28;5051622;28;20075;-82
2023/03/03 11:22:27;;;;;;;23.90;13.23;;;;;;;6.44;77.24;95116.69;5051686;28;20356;-82
2023/03/03 11:25:24;;;;;;;26.08;13.85;;;;;;;6.34;77.04;95108.66;5052574;28;20025;-82
2023/03/03 11:27:57;;;;;;;22.00;13.02;;;;;;;6.33;77.22;95107.88;5050651;28;20033;-82
2023/03/03 11:30:47;;;;;;;25.98;13.77;;;;;;;6.45;77.07;95108.53;5050813;28;20527;-82
2023/03/03 11:33:21;;;;;;;22.70;13.98;;;;;;;6.64;75.11;95108.97;5054903;28;20064;-82
2023/03/03 11:36:07;;;;;;;25.60;15.68;;;;;;;6.48;75.79;95078.28;5050625;28;20086;-82
2023/03/03 11:39:10;;;;;;;24.08;15.40;;;;;;;6.58;75.28;95108.13;5049943;28;20029;-82
2023/03/03 11:41:46;;;;;;;26.05;15.30;;;;;;;6.58;76.70;95088.88;5027957;28;20405;-82
2023/03/03 11:44:28;;;;;;;25.70;16.35;;;;;;;6.80;75.94;95101.97;5034572;28;20025;-82
2023/03/03 11:47:02;;;;;;;24.17;15.68;;;;;;;6.30;75.63;95103.13;5051439;28;20112;-82
2023/03/03 11:49:35;;;;;;;26.17;16.05;;;;;;;6.36;76.59;95099.50;5051506;28;20033;-82